createdAt,value
2017-11-15T00:09:08.765Z,16.83
2017-11-15T00:15:44.324Z,16.55
2017-11-15T00:39:21.056Z,16.08
2017-11-15T01:11:59.989Z,23.92
2017-11-15T01:14:27.505Z,25.77
2017-11-15T01:16:55.010Z,25.10
2017-11-15T01:19:22.523Z,26.53
2017-11-15T01:21:50.032Z,24.07
2017-11-15T01:24:17.545Z,22.20
2017-11-15T01:26:45.238Z,19.67
2017-11-15T01:29:12.798Z,20.67
2017-11-15T01:31:40.302Z,20.57
2017-11-15T01:34:07.826Z,18.60
2017-11-15T01:36:35.355Z,20.00
2017-11-15T01:39:02.879Z,20.80
2017-11-15T01:41:30.392Z,17.47
2017-11-15T01:43:57.916Z,20.97
2017-11-15T01:46:25.437Z,18.30
2017-11-15T01:48:52.952Z,17.30
2017-11-15T01:51:20.459Z,18.77
2017-11-15T01:53:47.968Z,20.73
2017-11-15T01:56:15.486Z,28.73
2017-11-15T01:58:43.009Z,26.50
2017-11-15T02:01:14.338Z,29.57
2017-11-15T02:03:41.885Z,30.85
2017-11-15T02:06:09.436Z,32.65
2017-11-15T02:08:36.979Z,32.97
2017-11-15T02:11:04.502Z,25.45
2017-11-15T02:13:32.001Z,22.90
2017-11-15T02:15:59.547Z,21.83
2017-11-15T02:18:27.285Z,20.20
2017-11-15T02:20:54.798Z,20.70
2017-11-15T02:23:22.362Z,18.00
2017-11-15T02:25:50.802Z,17.70
2017-11-15T02:28:18.321Z,19.93
2017-11-15T02:30:45.830Z,17.50
2017-11-15T02:33:13.332Z,14.87
2017-11-15T02:35:40.856Z,21.87
2017-11-15T02:38:08.382Z,15.53
2017-11-15T02:40:35.882Z,16.40
2017-11-15T02:43:04.362Z,16.93
2017-11-15T02:45:32.706Z,14.37
2017-11-15T02:48:00.226Z,14.23
2017-11-15T02:50:28.470Z,16.47
2017-11-15T02:52:55.983Z,16.13
2017-11-15T02:55:23.492Z,14.80
2017-11-15T02:57:51.006Z,19.13
2017-11-15T03:00:18.504Z,18.00
2017-11-15T03:02:46.892Z,20.10
2017-11-15T03:05:14.414Z,17.47
2017-11-15T03:07:41.939Z,15.10
2017-11-15T03:10:09.440Z,13.57
2017-11-15T03:12:36.965Z,15.87
2017-11-15T03:15:04.483Z,14.57
2017-11-15T03:17:31.997Z,15.17
2017-11-15T03:19:59.498Z,15.20
2017-11-15T03:22:27.017Z,14.57
2017-11-15T03:24:54.524Z,15.37
2017-11-15T03:27:22.039Z,15.83
2017-11-15T03:29:49.559Z,15.10
2017-11-15T03:32:17.069Z,18.00
2017-11-15T03:34:44.574Z,17.57
2017-11-15T03:37:12.098Z,22.50
2017-11-15T03:39:39.629Z,23.27
2017-11-15T03:48:53.291Z,21.23
2017-11-15T03:51:20.822Z,20.50
2017-11-15T03:53:48.326Z,20.90
2017-11-15T03:56:15.864Z,20.08
2017-11-15T03:58:43.379Z,17.90
2017-11-15T04:01:10.883Z,16.33
2017-11-15T04:03:38.377Z,13.83
2017-11-15T04:06:05.895Z,13.90
2017-11-15T04:08:33.402Z,14.27
2017-11-15T04:11:00.917Z,14.33
2017-11-15T04:13:28.422Z,14.17
2017-11-15T04:15:55.929Z,14.90
2017-11-15T04:18:23.425Z,12.80
2017-11-15T04:20:50.917Z,13.13
2017-11-15T04:23:18.419Z,10.87
2017-11-15T04:25:45.905Z,11.93
2017-11-15T04:28:13.408Z,12.90
2017-11-15T04:30:40.901Z,11.53
2017-11-15T04:33:08.405Z,10.80
2017-11-15T04:35:35.917Z,11.33
2017-11-15T04:38:03.411Z,13.10
2017-11-15T04:40:30.931Z,13.97
2017-11-15T04:42:58.445Z,13.80
2017-11-15T04:45:25.956Z,11.53
2017-11-15T04:47:53.461Z,13.50
2017-11-15T04:50:20.987Z,15.13
2017-11-15T04:52:48.650Z,16.23
2017-11-15T04:55:16.243Z,19.65
2017-11-15T04:57:43.810Z,18.42
2017-11-15T05:00:11.341Z,17.70
2017-11-15T05:02:38.856Z,15.68
2017-11-15T05:05:06.460Z,15.50
2017-11-15T05:07:33.995Z,15.32
2017-11-15T05:10:01.501Z,13.65
2017-11-15T05:12:29.013Z,14.70
2017-11-15T05:14:56.527Z,13.10
2017-11-15T05:17:24.148Z,12.37
2017-11-15T05:19:51.645Z,13.53
2017-11-15T05:22:19.175Z,16.55
2017-11-15T05:24:46.708Z,15.13
2017-11-15T05:27:14.298Z,17.33
2017-11-15T05:29:42.271Z,12.97
2017-11-15T05:32:09.770Z,13.37
2017-11-15T05:34:37.300Z,12.77
2017-11-15T05:37:04.839Z,19.12
2017-11-15T05:39:32.351Z,22.20
2017-11-15T05:41:59.874Z,26.90
2017-11-15T05:44:27.394Z,17.05
2017-11-15T05:46:54.911Z,18.83
2017-11-15T05:49:22.412Z,14.30
2017-11-15T05:51:49.929Z,16.77
2017-11-15T05:54:17.439Z,13.80
2017-11-15T05:56:44.973Z,14.20
2017-11-15T05:59:12.480Z,13.47
2017-11-15T06:01:40.031Z,15.67
2017-11-15T06:04:07.548Z,13.77
2017-11-15T06:06:35.095Z,15.27
2017-11-15T06:09:02.736Z,13.83
2017-11-15T06:11:31.123Z,12.67
2017-11-15T06:13:58.616Z,16.70
2017-11-15T06:16:26.277Z,13.80
2017-11-15T06:18:53.772Z,13.13
2017-11-15T06:21:21.300Z,15.60
2017-11-15T06:23:48.826Z,15.43
2017-11-15T06:26:16.395Z,18.80
2017-11-15T06:28:43.961Z,14.77
2017-11-15T06:31:11.502Z,15.83
2017-11-15T06:33:38.947Z,15.03
2017-11-15T06:36:06.463Z,15.23
2017-11-15T06:38:33.971Z,16.80
2017-11-15T06:41:01.489Z,17.50
2017-11-15T06:43:29.004Z,32.63
2017-11-15T06:45:56.521Z,17.23
2017-11-15T06:48:24.037Z,13.67
2017-11-15T06:50:51.550Z,13.57
2017-11-15T06:53:19.749Z,13.23
2017-11-15T06:55:47.275Z,15.47
2017-11-15T06:58:14.778Z,14.43
2017-11-15T07:00:42.293Z,13.77
2017-11-15T07:03:09.857Z,13.30
2017-11-15T07:05:37.385Z,13.77
2017-11-15T07:08:04.907Z,12.87
2017-11-15T07:10:32.399Z,11.90
2017-11-15T07:12:59.928Z,12.97
2017-11-15T07:15:27.423Z,13.23
2017-11-15T07:17:54.930Z,12.67
2017-11-15T07:20:22.429Z,13.40
2017-11-15T07:22:49.950Z,14.57
2017-11-15T07:25:17.457Z,14.27
2017-11-15T07:27:44.987Z,14.87
2017-11-15T07:30:12.485Z,13.80
2017-11-15T07:32:40.017Z,13.03
2017-11-15T07:35:07.518Z,12.67
2017-11-15T07:37:35.035Z,14.23
2017-11-15T07:40:02.551Z,13.43
2017-11-15T07:42:30.062Z,14.27
2017-11-15T07:44:57.574Z,14.57
2017-11-15T07:47:25.090Z,12.77
2017-11-15T07:49:52.599Z,14.20
2017-11-15T07:52:20.137Z,14.27
2017-11-15T07:54:47.677Z,13.20
2017-11-15T07:57:15.192Z,14.00
2017-11-15T07:59:42.698Z,16.13
2017-11-15T08:02:10.208Z,12.23
2017-11-15T08:04:37.737Z,11.73
2017-11-15T08:07:05.284Z,12.87
2017-11-15T08:09:32.796Z,13.20
2017-11-15T08:12:00.320Z,14.10
2017-11-15T08:14:27.840Z,13.60
2017-11-15T08:16:55.347Z,14.20
2017-11-15T08:19:22.991Z,14.90
2017-11-15T08:21:50.496Z,15.63
2017-11-15T08:24:18.009Z,16.10
2017-11-15T08:26:45.530Z,14.20
2017-11-15T08:29:13.044Z,12.87
2017-11-15T08:31:40.579Z,14.40
2017-11-15T08:34:08.115Z,19.57
2017-11-15T08:36:35.625Z,16.63
2017-11-15T08:39:03.148Z,16.30
2017-11-15T08:41:30.665Z,13.93
2017-11-15T08:43:58.178Z,12.73
2017-11-15T08:46:25.688Z,15.40
2017-11-15T08:48:53.216Z,13.90
2017-11-15T08:51:20.720Z,13.50
2017-11-15T08:53:48.237Z,15.10
2017-11-15T08:56:15.735Z,14.27
2017-11-15T08:58:43.355Z,13.73
2017-11-15T09:01:10.863Z,11.30
2017-11-15T09:03:38.387Z,11.50
2017-11-15T09:06:05.895Z,11.27
2017-11-15T09:08:33.426Z,12.13
2017-11-15T09:11:00.997Z,13.77
2017-11-15T09:13:28.521Z,13.00
2017-11-15T09:15:56.041Z,13.20
2017-11-15T09:18:23.531Z,12.50
2017-11-15T09:20:51.033Z,12.20
2017-11-15T09:23:18.609Z,13.13
2017-11-15T09:25:46.111Z,13.13
2017-11-15T09:28:13.627Z,13.37
2017-11-15T09:30:41.135Z,13.47
2017-11-15T09:33:08.638Z,13.80
2017-11-15T09:35:36.131Z,13.03
2017-11-15T09:38:03.665Z,12.03
2017-11-15T09:40:31.186Z,12.00
2017-11-15T09:42:58.691Z,11.97
2017-11-15T09:45:26.213Z,11.30
2017-11-15T09:47:53.753Z,12.70
2017-11-15T09:50:22.120Z,12.97
2017-11-15T09:52:49.638Z,13.10
2017-11-15T09:55:17.154Z,13.97
2017-11-15T09:57:44.654Z,12.43
2017-11-15T10:00:12.163Z,11.53
2017-11-15T10:02:40.449Z,12.50
2017-11-15T10:05:07.943Z,14.13
2017-11-15T10:07:35.463Z,12.90
2017-11-15T10:10:03.041Z,13.70
2017-11-15T10:16:51.313Z,13.50
2017-11-15T10:20:11.937Z,12.80
2017-11-15T10:27:23.745Z,12.50
2017-11-15T10:34:00.797Z,15.80
2017-11-15T10:40:58.579Z,13.63
2017-11-15T10:58:16.006Z,13.07
2017-11-15T11:08:04.469Z,12.87
2017-11-15T11:11:15.785Z,12.93
2017-11-15T11:18:13.259Z,13.20
2017-11-15T11:41:59.731Z,13.90
2017-11-15T11:45:12.598Z,12.70
2017-11-15T11:52:08.964Z,12.60
2017-11-15T12:29:13.045Z,12.43
2017-11-15T12:49:07.881Z,10.87
2017-11-15T12:52:27.342Z,11.83
2017-11-15T12:59:24.102Z,12.00
2017-11-15T13:36:28.854Z,12.10
2017-11-15T13:50:31.666Z,12.67
2017-11-15T13:53:50.078Z,11.37
2017-11-15T14:31:29.434Z,11.30
2017-11-15T14:38:08.652Z,12.00
2017-11-15T14:48:13.292Z,13.33
2017-11-15T14:54:38.475Z,14.23
2017-11-15T14:57:49.764Z,13.03
2017-11-15T15:07:49.399Z,15.47
2017-11-15T15:10:38.836Z,16.23
2017-11-15T15:13:06.391Z,14.93
2017-11-15T15:15:33.934Z,15.10
2017-11-15T15:18:01.439Z,15.63
2017-11-15T15:20:28.947Z,14.70
2017-11-15T15:22:56.471Z,15.27
2017-11-15T15:25:23.976Z,16.70
2017-11-15T15:27:51.480Z,16.57
2017-11-15T15:30:19.058Z,15.33
2017-11-15T15:32:46.579Z,16.70
2017-11-15T15:35:14.097Z,16.67
2017-11-15T15:37:41.600Z,17.73
2017-11-15T15:40:09.126Z,13.30
2017-11-15T15:42:36.643Z,14.60
2017-11-15T15:45:04.154Z,14.10
2017-11-15T15:47:31.849Z,14.73
2017-11-15T15:49:59.391Z,14.87
2017-11-15T15:52:26.914Z,13.50
2017-11-15T15:54:54.425Z,15.00
2017-11-15T15:57:21.949Z,16.77
2017-11-15T16:00:45.488Z,16.40
2017-11-15T16:03:14.786Z,15.00
2017-11-15T16:05:49.072Z,16.23
2017-11-15T16:08:21.314Z,15.80
2017-11-15T16:10:51.155Z,17.13
2017-11-15T16:13:31.295Z,17.03
2017-11-15T16:16:01.013Z,16.73
2017-11-15T16:18:28.544Z,17.10
2017-11-15T16:20:56.057Z,20.77
2017-11-15T16:23:23.610Z,18.20
2017-11-15T16:25:54.893Z,17.33
2017-11-15T16:28:22.443Z,16.80
2017-11-15T16:30:56.304Z,38.73
2017-11-15T16:33:23.838Z,22.87
2017-11-15T16:35:51.643Z,18.10
2017-11-15T16:38:21.212Z,15.90
2017-11-15T16:40:50.555Z,15.53
2017-11-15T16:43:18.207Z,17.60
2017-11-15T16:45:46.415Z,17.57
2017-11-15T16:48:15.424Z,18.03
2017-11-15T16:50:42.926Z,18.90
2017-11-15T16:53:11.048Z,16.47
2017-11-15T16:55:38.556Z,17.00
2017-11-15T16:58:14.747Z,15.80
2017-11-15T17:00:44.625Z,16.53
2017-11-15T17:03:14.374Z,18.37
2017-11-15T17:05:49.444Z,18.87
2017-11-15T17:08:16.986Z,20.90
2017-11-15T17:10:50.573Z,22.30
2017-11-15T17:13:18.115Z,22.87
2017-11-15T17:15:49.165Z,23.23
2017-11-15T17:18:16.705Z,17.73
2017-11-15T17:20:44.213Z,17.83
2017-11-15T17:23:42.595Z,16.97
2017-11-15T17:26:13.508Z,17.13
2017-11-15T17:28:45.492Z,17.23
2017-11-15T17:31:13.061Z,18.27
2017-11-15T17:33:42.756Z,17.37
2017-11-15T17:36:11.702Z,17.53
2017-11-15T17:38:39.764Z,16.50
2017-11-15T17:41:23.617Z,17.10
2017-11-15T17:43:58.918Z,18.80
2017-11-15T17:46:31.711Z,16.93
2017-11-15T17:49:01.373Z,16.43
2017-11-15T17:51:35.420Z,16.70
2017-11-15T17:54:02.962Z,15.30
2017-11-15T17:56:35.050Z,14.70
2017-11-15T17:59:07.651Z,15.93
2017-11-15T18:01:35.178Z,16.20
2017-11-15T18:04:08.816Z,15.07
2017-11-15T18:06:39.068Z,15.10
2017-11-15T18:09:06.877Z,14.53
2017-11-15T18:11:34.426Z,18.03
2017-11-15T18:14:01.931Z,17.80
2017-11-15T18:16:34.071Z,22.77
2017-11-15T18:19:01.590Z,21.33
2017-11-15T18:21:30.035Z,19.30
2017-11-15T18:24:01.177Z,18.20
2017-11-15T18:26:28.705Z,17.83
2017-11-15T18:28:56.241Z,18.50
2017-11-15T18:31:23.928Z,18.17
2017-11-15T18:33:51.798Z,17.47
2017-11-15T18:36:19.849Z,20.53
2017-11-15T18:42:07.600Z,20.07
2017-11-15T18:44:48.807Z,18.60
2017-11-15T18:47:19.320Z,16.80
2017-11-15T18:49:50.557Z,15.23
2017-11-15T18:52:18.759Z,15.30
2017-11-15T18:54:46.850Z,15.40
2017-11-15T18:57:14.992Z,17.10
2017-11-15T18:59:49.249Z,16.40
2017-11-15T19:02:18.888Z,17.20
2017-11-15T19:04:47.892Z,13.93
2017-11-15T19:07:17.818Z,13.20
2017-11-15T19:09:45.789Z,12.57
2017-11-15T19:12:18.165Z,11.20
2017-11-15T19:14:46.027Z,15.80
2017-11-15T19:17:14.152Z,18.92
2017-11-15T19:19:42.067Z,18.10
2017-11-15T19:25:50.408Z,15.40
2017-11-15T19:28:18.377Z,14.02
2017-11-15T19:30:48.061Z,11.97
2017-11-15T19:33:16.057Z,11.67
2017-11-15T19:35:44.117Z,12.30
2017-11-15T19:38:12.014Z,12.40
2017-11-15T19:40:39.948Z,13.43
2017-11-15T19:43:07.925Z,11.60
2017-11-15T19:45:35.990Z,14.23
2017-11-15T19:48:05.583Z,21.08
2017-11-15T19:50:34.455Z,17.95
2017-11-15T19:53:02.557Z,17.25
2017-11-15T19:55:32.545Z,13.20
2017-11-15T19:58:01.230Z,12.75
2017-11-15T20:00:29.843Z,11.77
2017-11-15T20:03:03.348Z,11.18
2017-11-15T20:05:35.681Z,13.45
2017-11-15T20:08:06.907Z,13.07
2017-11-15T20:10:38.429Z,14.90
2017-11-15T20:13:10.585Z,17.02
2017-11-15T20:15:40.066Z,17.70
2017-11-15T20:18:11.173Z,16.65
2017-11-15T20:20:39.197Z,15.27
2017-11-15T20:23:07.171Z,13.05
2017-11-15T20:25:35.143Z,12.98
2017-11-15T20:28:34.669Z,14.30
2017-11-15T20:31:02.620Z,15.07
2017-11-15T20:33:31.236Z,12.43
2017-11-15T20:36:01.419Z,11.77
2017-11-15T20:38:29.710Z,11.50
2017-11-15T20:40:58.953Z,13.25
2017-11-15T20:43:26.505Z,13.55
2017-11-15T20:45:59.444Z,14.63
2017-11-15T20:48:27.705Z,15.70
2017-11-15T20:50:55.261Z,15.70
2017-11-15T20:53:22.902Z,14.57
2017-11-15T20:55:56.291Z,14.50
2017-11-15T20:58:23.846Z,14.30
2017-11-15T21:00:52.905Z,13.23
2017-11-15T21:06:39.907Z,13.50
2017-11-15T21:09:07.437Z,14.80
2017-11-15T21:12:37.902Z,14.35
2017-11-15T21:15:10.859Z,15.75
2017-11-15T21:17:44.125Z,14.32
2017-11-15T21:20:20.230Z,12.90
2017-11-15T21:22:54.068Z,13.25
2017-11-15T21:25:21.626Z,15.75
2017-11-15T21:27:49.165Z,14.00
2017-11-15T21:30:16.714Z,19.48
2017-11-15T21:32:44.280Z,15.40
2017-11-15T21:35:11.796Z,13.67
2017-11-15T21:37:39.389Z,13.70
2017-11-15T21:40:06.911Z,13.80
2017-11-15T21:42:41.025Z,15.65
2017-11-15T21:45:08.550Z,15.77
2017-11-15T21:47:36.090Z,14.05
2017-11-15T21:50:05.133Z,14.93
2017-11-15T22:40:24.878Z,11.15
2017-11-15T23:04:08.316Z,11.38
2017-11-15T23:07:28.808Z,11.32
2017-11-15T23:10:27.563Z,12.18
2017-11-15T23:13:31.371Z,12.07
2017-11-15T23:16:06.158Z,11.05
2017-11-15T23:18:39.916Z,13.30
2017-11-15T23:21:09.652Z,12.52
2017-11-15T23:23:42.673Z,12.35
2017-11-15T23:26:17.990Z,17.15
2017-11-15T23:28:52.245Z,17.02
2017-11-15T23:31:25.044Z,15.07
2017-11-15T23:33:59.404Z,15.88
2017-11-15T23:36:34.742Z,15.75
2017-11-15T23:39:10.794Z,13.48
2017-11-15T23:41:45.053Z,14.10
2017-11-15T23:44:48.455Z,13.40
2017-11-15T23:47:34.784Z,12.93
2017-11-15T23:50:33.520Z,13.55
2017-11-15T23:53:30.421Z,12.73
2017-11-15T23:56:30.956Z,13.65
2017-11-15T23:59:08.759Z,12.52
